Wetterdaten: Woche 23.12.02 - 29.12.02 (KW52)
Datum Zeit Temperatur Luftfeuchte Luftdruck Regenmenge Wind Richtung Taupunkt Windchill
23.12.2002 00:00 11.4 C 87 % 1016.0 hPa 0.0 l/m 29.2 km/h (5 Bft) W-NW 9.2 C 11.4 C
23.12.2002 01:00 11.3 C 84 % 1016.8 hPa 0.0 l/m 14.1 km/h (3 Bft) W-NW 8.7 C 11.3 C
23.12.2002 02:00 11.2 C 84 % 1017.1 hPa 0.0 l/m 24.9 km/h (4 Bft) W-NW 8.6 C 11.2 C
23.12.2002 03:00 10.6 C 85 % 1017.1 hPa 0.0 l/m 18.4 km/h (3 Bft) W-NW 8.2 C 10.6 C
23.12.2002 04:00 10.9 C 85 % 1017.1 hPa 0.0 l/m 16.4 km/h (3 Bft) W-NW 8.4 C 10.9 C
23.12.2002 05:00 10.8 C 86 % 1017.1 hPa 0.0 l/m 3.9 km/h (1 Bft) W 8.6 C 10.8 C
23.12.2002 06:00 10.3 C 92 % 1017.1 hPa 0.0 l/m 1.6 km/h (1 Bft) W-NW 9.0 C 10.3 C
23.12.2002 07:00 9.9 C 94 % 1017.1 hPa 0.0 l/m 2.9 km/h (1 Bft) O 9.0 C 9.7 C
23.12.2002 08:00 10.0 C 94 % 1017.1 hPa 0.0 l/m 4.2 km/h (1 Bft) SO 9.1 C 9.7 C
23.12.2002 09:00 10.1 C 92 % 1017.1 hPa 0.0 l/m 0.5 km/h (0 Bft) SO 8.9 C 10.1 C
23.12.2002 10:00 10.6 C 91 % 1017.1 hPa 0.0 l/m 0.0 km/h (0 Bft) N 9.3 C 10.6 C
23.12.2002 11:00 11.4 C 86 % 1017.1 hPa 0.0 l/m 1.6 km/h (1 Bft) SO 9.2 C 11.4 C
23.12.2002 12:00 11.8 C 81 % 1016.1 hPa 0.0 l/m 0.4 km/h (0 Bft) S 8.7 C 11.8 C
23.12.2002 13:00 11.9 C 81 % 1015.2 hPa 0.0 l/m 0.0 km/h (0 Bft) N 8.7 C 11.9 C
23.12.2002 14:00 11.6 C 83 % 1014.8 hPa 0.0 l/m 1.0 km/h (0 Bft) W-NW 8.8 C 11.6 C
23.12.2002 15:00 10.8 C 87 % 1014.3 hPa 0.0 l/m 0.4 km/h (0 Bft) O 8.7 C 10.8 C
23.12.2002 16:00 9.7 C 91 % 1014.6 hPa 0.0 l/m 0.5 km/h (0 Bft) O-SO 8.3 C 9.6 C
23.12.2002 17:00 8.7 C 95 % 1014.4 hPa 0.0 l/m 0.6 km/h (0 Bft) O-SO 7.9 C 8.6 C
23.12.2002 18:00 8.7 C 99 % 1014.2 hPa 0.0 l/m 2.0 km/h (1 Bft) O-SO 8.5 C 8.5 C
23.12.2002 19:00 8.9 C 98 % 1014.0 hPa 0.0 l/m 0.3 km/h (0 Bft) O-SO 8.6 C 8.9 C
23.12.2002 20:00 8.8 C 98 % 1014.6 hPa 0.0 l/m 0.0 km/h (0 Bft) N 8.5 C 8.8 C
23.12.2002 21:00 8.9 C 99 % 1015.1 hPa 0.0 l/m 0.9 km/h (0 Bft) O-SO 8.7 C 8.9 C
23.12.2002 22:00 9.5 C 94 % 1015.1 hPa 0.0 l/m 3.7 km/h (1 Bft) SO 8.6 C 9.2 C
23.12.2002 23:00 9.7 C 89 % 1015.1 hPa 0.0 l/m 2.1 km/h (1 Bft) SO 8.0 C 9.4 C
24.12.2002 00:00 9.6 C 88 % 1015.1 hPa 0.0 l/m 0.1 km/h (0 Bft) S-SW 7.7 C 9.6 C
24.12.2002 01:00 9.3 C 89 % 1015.1 hPa 0.0 l/m 1.5 km/h (1 Bft) SO 7.6 C 9.2 C
24.12.2002 02:00 9.1 C 89 % 1015.1 hPa 0.0 l/m 1.1 km/h (1 Bft) SO 7.4 C 9.0 C
24.12.2002 03:00 8.6 C 93 % 1015.9 hPa 0.0 l/m 2.9 km/h (1 Bft) SO 7.6 C 8.3 C
24.12.2002 04:00 8.6 C 94 % 1016.0 hPa 0.0 l/m 0.8 km/h (0 Bft) S-SO 7.8 C 8.6 C
24.12.2002 05:00 8.7 C 94 % 1015.8 hPa 0.0 l/m 3.0 km/h (1 Bft) W 7.8 C 8.4 C
24.12.2002 06:00 8.5 C 92 % 1015.7 hPa 0.0 l/m 0.3 km/h (0 Bft) S 7.3 C 8.5 C
24.12.2002 07:00 8.3 C 93 % 1015.7 hPa 0.0 l/m 1.1 km/h (1 Bft) SO 7.3 C 8.3 C
24.12.2002 08:00 8.1 C 92 % 1016.1 hPa 0.0 l/m 2.9 km/h (1 Bft) SO 6.9 C 7.8 C
24.12.2002 09:00 8.4 C 91 % 1016.1 hPa 0.0 l/m 3.2 km/h (1 Bft) SO 6.9 C 8.2 C
24.12.2002 10:00 8.8 C 89 % 1016.1 hPa 0.0 l/m 7.8 km/h (2 Bft) SO 7.1 C 7.6 C
24.12.2002 11:00 9.4 C 87 % 1017.0 hPa 0.0 l/m 3.2 km/h (1 Bft) S-SW 7.4 C 9.2 C
24.12.2002 12:00 9.6 C 83 % 1017.1 hPa 0.0 l/m 7.0 km/h (2 Bft) S-SO 6.9 C 8.8 C
24.12.2002 13:00 9.8 C 81 % 1017.1 hPa 0.0 l/m 3.9 km/h (1 Bft) SW 6.7 C 9.4 C
24.12.2002 14:00 9.7 C 82 % 1017.1 hPa 0.0 l/m 4.1 km/h (1 Bft) SO 6.7 C 9.2 C
24.12.2002 15:00 9.4 C 83 % 1017.1 hPa 0.0 l/m 8.4 km/h (2 Bft) SO 6.6 C 8.2 C
24.12.2002 16:00 8.2 C 89 % 1017.1 hPa 0.0 l/m 2.6 km/h (1 Bft) SO 6.5 C 8.0 C
24.12.2002 17:00 7.1 C 93 % 1017.4 hPa 0.0 l/m 4.5 km/h (1 Bft) SO 6.0 C 6.6 C
24.12.2002 18:00 5.9 C 96 % 1018.2 hPa 0.0 l/m 0.8 km/h (0 Bft) SO 5.4 C 5.9 C
24.12.2002 19:00 6.1 C 99 % 1018.2 hPa 0.0 l/m 2.0 km/h (1 Bft) SO 5.9 C 5.9 C
24.12.2002 20:00 6.6 C 97 % 1018.2 hPa 0.0 l/m 1.0 km/h (0 Bft) SO 6.2 C 6.5 C
24.12.2002 21:00 6.5 C 97 % 1018.2 hPa 0.0 l/m 0.6 km/h (0 Bft) SO 6.0 C 6.4 C
24.12.2002 22:00 6.7 C 97 % 1018.2 hPa 0.0 l/m 0.0 km/h (0 Bft) N 6.3 C 6.7 C
24.12.2002 23:00 6.8 C 97 % 1018.2 hPa 0.0 l/m 0.0 km/h (0 Bft) N 6.3 C 6.8 C
25.12.2002 00:00 6.8 C 97 % 1018.2 hPa 0.0 l/m 0.0 km/h (0 Bft) N 6.4 C 6.8 C
25.12.2002 01:00 6.8 C 96 % 1018.2 hPa 0.0 l/m 0.0 km/h (0 Bft) N 6.2 C 6.8 C
25.12.2002 02:00 6.8 C 95 % 1018.2 hPa 0.0 l/m 0.0 km/h (0 Bft) N 6.0 C 6.8 C
25.12.2002 03:00 6.8 C 95 % 1018.2 hPa 0.0 l/m 0.0 km/h (0 Bft) N 6.0 C 6.8 C
25.12.2002 04:00 6.7 C 96 % 1018.3 hPa 0.0 l/m 0.0 km/h (0 Bft) N 6.0 C 6.7 C
25.12.2002 05:00 6.5 C 95 % 1018.1 hPa 0.0 l/m 0.6 km/h (0 Bft) SO 5.8 C 6.5 C
25.12.2002 06:00 6.4 C 95 % 1018.1 hPa 0.0 l/m 1.0 km/h (0 Bft) S 5.6 C 6.3 C
25.12.2002 07:00 6.4 C 94 % 1018.2 hPa 0.0 l/m 0.0 km/h (0 Bft) N 5.5 C 6.4 C
25.12.2002 08:00 6.3 C 94 % 1018.2 hPa 0.0 l/m 0.7 km/h (0 Bft) S-SO 5.5 C 6.3 C
25.12.2002 09:00 6.9 C 94 % 1019.0 hPa 0.0 l/m 0.0 km/h (0 Bft) N 5.9 C 6.9 C
25.12.2002 10:00 7.6 C 92 % 1019.2 hPa 0.0 l/m 0.2 km/h (0 Bft) S-SO 6.4 C 7.6 C
25.12.2002 11:00 7.9 C 91 % 1019.2 hPa 0.3 l/m 0.1 km/h (0 Bft) SO 6.5 C 7.9 C
25.12.2002 12:00 8.0 C 91 % 1018.7 hPa 0.0 l/m 0.1 km/h (0 Bft) N 6.6 C 8.0 C
25.12.2002 13:00 7.9 C 90 % 1018.2 hPa 0.0 l/m 0.1 km/h (0 Bft) N 6.4 C 7.9 C
25.12.2002 14:00 7.4 C 93 % 1018.2 hPa 0.9 l/m 0.0 km/h (0 Bft) N 6.3 C 7.4 C
25.12.2002 15:00 7.3 C 96 % 1018.9 hPa 0.6 l/m 0.1 km/h (0 Bft) N 6.6 C 7.3 C
25.12.2002 16:00 6.9 C 96 % 1019.2 hPa 0.0 l/m 0.3 km/h (0 Bft) SO 6.3 C 6.9 C
25.12.2002 17:00 6.8 C 95 % 1019.2 hPa 0.0 l/m 1.4 km/h (1 Bft) SO 6.1 C 6.8 C
25.12.2002 18:00 6.8 C 96 % 1019.2 hPa 0.0 l/m 0.0 km/h (0 Bft) N 6.1 C 6.8 C
25.12.2002 19:00 6.7 C 96 % 1019.2 hPa 0.0 l/m 0.0 km/h (0 Bft) N 6.1 C 6.7 C
25.12.2002 20:00 6.6 C 97 % 1020.2 hPa 0.0 l/m 0.0 km/h (0 Bft) S-SO 6.2 C 6.6 C
25.12.2002 21:00 6.6 C 94 % 1020.1 hPa 0.0 l/m 0.3 km/h (0 Bft) SO 5.8 C 6.6 C
25.12.2002 22:00 6.5 C 92 % 1019.2 hPa 0.0 l/m 0.6 km/h (0 Bft) SO 5.2 C 6.4 C
25.12.2002 23:00 6.4 C 92 % 1019.2 hPa 0.0 l/m 0.3 km/h (0 Bft) SO 5.2 C 6.4 C
26.12.2002 00:00 6.3 C 94 % 1018.2 hPa 0.0 l/m 0.0 km/h (0 Bft) N 5.4 C 6.3 C
26.12.2002 01:00 6.3 C 95 % 1018.2 hPa 0.0 l/m 0.0 km/h (0 Bft) N 5.5 C 6.3 C
26.12.2002 02:00 6.2 C 95 % 1018.2 hPa 0.0 l/m 0.0 km/h (0 Bft) N 5.5 C 6.2 C
26.12.2002 03:00 6.1 C 96 % 1018.2 hPa 0.0 l/m 0.1 km/h (0 Bft) N 5.5 C 6.1 C
26.12.2002 04:00 6.0 C 94 % 1017.1 hPa 0.0 l/m 1.4 km/h (1 Bft) SO 5.1 C 5.8 C
26.12.2002 05:00 6.1 C 91 % 1016.9 hPa 0.0 l/m 4.8 km/h (1 Bft) SO 4.7 C 5.3 C
26.12.2002 06:00 5.9 C 92 % 1016.1 hPa 0.0 l/m 1.7 km/h (1 Bft) SO 4.6 C 5.7 C
26.12.2002 07:00 5.8 C 92 % 1016.1 hPa 0.0 l/m 4.6 km/h (1 Bft) SO 4.6 C 4.8 C
26.12.2002 08:00 5.7 C 92 % 1016.1 hPa 0.0 l/m 9.4 km/h (2 Bft) O-SO 4.5 C 3.7 C
26.12.2002 09:00 5.8 C 89 % 1015.9 hPa 0.0 l/m 7.0 km/h (2 Bft) O-SO 4.2 C 4.4 C
26.12.2002 10:00 6.0 C 88 % 1015.3 hPa 0.0 l/m 3.6 km/h (1 Bft) O-SO 4.1 C 5.3 C
26.12.2002 11:00 5.9 C 92 % 1015.4 hPa 1.2 l/m 0.3 km/h (0 Bft) O-SO 4.7 C 5.8 C
26.12.2002 12:00 5.9 C 95 % 1014.5 hPa 1.5 l/m 2.2 km/h (1 Bft) O-SO 5.1 C 5.5 C
26.12.2002 13:00 6.3 C 94 % 1014.0 hPa 0.0 l/m 7.9 km/h (2 Bft) S-SO 5.3 C 4.9 C
26.12.2002 14:00 7.1 C 89 % 1013.8 hPa 0.0 l/m 6.2 km/h (2 Bft) S-SO 5.4 C 6.1 C
26.12.2002 15:00 7.7 C 87 % 1013.0 hPa 0.0 l/m 6.1 km/h (2 Bft) S 5.7 C 6.9 C
26.12.2002 16:00 7.8 C 84 % 1013.0 hPa 0.0 l/m 9.5 km/h (2 Bft) SO 5.4 C 6.2 C
26.12.2002 17:00 7.9 C 84 % 1013.0 hPa 0.0 l/m 5.2 km/h (1 Bft) SO 5.3 C 7.1 C
26.12.2002 18:00 7.9 C 84 % 1013.0 hPa 0.0 l/m 2.5 km/h (1 Bft) SO 5.4 C 7.6 C
26.12.2002 19:00 7.5 C 89 % 1013.5 hPa 0.0 l/m 4.4 km/h (1 Bft) SO 5.8 C 6.8 C
26.12.2002 20:00 6.7 C 92 % 1013.0 hPa 0.0 l/m 5.0 km/h (1 Bft) SO 5.5 C 5.8 C
26.12.2002 21:00 5.8 C 94 % 1013.0 hPa 0.0 l/m 2.4 km/h (1 Bft) S-SO 4.9 C 5.4 C
26.12.2002 22:00 4.9 C 97 % 1012.9 hPa 0.0 l/m 0.0 km/h (0 Bft) N 4.5 C 4.9 C
26.12.2002 23:00 3.8 C 98 % 1012.1 hPa 0.0 l/m 0.4 km/h (0 Bft) O-NO 3.5 C 3.8 C
27.12.2002 00:00 3.9 C 100 % 1011.9 hPa 0.0 l/m 0.0 km/h (0 Bft) N 3.9 C 3.9 C
27.12.2002 01:00 3.7 C 100 % 1011.3 hPa 0.0 l/m 0.0 km/h (0 Bft) N 3.7 C 3.7 C
27.12.2002 02:00 3.3 C 100 % 1010.9 hPa 0.0 l/m 1.4 km/h (1 Bft) O-SO 3.3 C 3.1 C
27.12.2002 03:00 3.3 C 100 % 1010.2 hPa 0.0 l/m 0.9 km/h (0 Bft) O-SO 3.3 C 3.2 C
27.12.2002 04:00 3.5 C 100 % 1009.6 hPa 0.0 l/m 0.0 km/h (0 Bft) N 3.5 C 3.5 C
27.12.2002 05:00 3.4 C 100 % 1008.5 hPa 0.0 l/m 0.0 km/h (0 Bft) N 3.4 C 3.4 C
27.12.2002 06:00 3.4 C 100 % 1007.3 hPa 0.0 l/m 0.0 km/h (0 Bft) N 3.4 C 3.4 C
27.12.2002 07:00 3.5 C 100 % 1006.8 hPa 0.0 l/m 0.1 km/h (0 Bft) O-SO 3.5 C 3.5 C
27.12.2002 08:00 3.6 C 100 % 1006.4 hPa 0.0 l/m 1.2 km/h (1 Bft) O-SO 3.6 C 3.3 C
27.12.2002 09:00 3.7 C 100 % 1005.7 hPa 0.0 l/m 0.0 km/h (0 Bft) N 3.7 C 3.7 C
27.12.2002 10:00 4.1 C 100 % 1005.7 hPa 0.0 l/m 1.2 km/h (1 Bft) O-SO 4.1 C 3.9 C
27.12.2002 11:00 4.5 C 100 % 1005.0 hPa 0.0 l/m 2.5 km/h (1 Bft) O-SO 4.5 C 4.0 C
27.12.2002 12:00 5.0 C 100 % 1004.5 hPa 0.0 l/m 2.5 km/h (1 Bft) SO 5.0 C 4.6 C
27.12.2002 13:00 5.3 C 100 % 1003.4 hPa 0.0 l/m 0.1 km/h (0 Bft) N 5.3 C 5.3 C
27.12.2002 14:00 6.0 C 99 % 1002.6 hPa 0.0 l/m 0.4 km/h (0 Bft) SO 5.8 C 5.9 C
27.12.2002 15:00 6.7 C 93 % 1002.5 hPa 0.0 l/m 0.4 km/h (0 Bft) S-SO 5.6 C 6.6 C
27.12.2002 16:00 5.3 C 93 % 1001.7 hPa 0.0 l/m 0.6 km/h (0 Bft) SO 4.3 C 5.2 C
27.12.2002 17:00 4.3 C 97 % 1001.6 hPa 0.0 l/m 0.9 km/h (0 Bft) SO 3.9 C 4.1 C
27.12.2002 18:00 4.2 C 100 % 1000.5 hPa 0.0 l/m 0.1 km/h (0 Bft) N 4.2 C 4.2 C
27.12.2002 19:00 4.3 C 100 % 999.5 hPa 0.0 l/m 0.3 km/h (0 Bft) N-NO 4.3 C 4.3 C
27.12.2002 20:00 4.1 C 100 % 999.5 hPa 0.0 l/m 0.5 km/h (0 Bft) O-NO 4.1 C 4.1 C
27.12.2002 21:00 4.0 C 100 % 999.5 hPa 0.0 l/m 0.6 km/h (0 Bft) NW 4.0 C 3.9 C
27.12.2002 22:00 4.0 C 100 % 999.5 hPa 0.0 l/m 3.4 km/h (1 Bft) O 4.0 C 3.2 C
27.12.2002 23:00 3.7 C 100 % 999.5 hPa 0.0 l/m 1.3 km/h (1 Bft) O-SO 3.7 C 3.4 C
28.12.2002 00:00 3.9 C 100 % 999.5 hPa 0.0 l/m 1.1 km/h (0 Bft) O-SO 3.9 C 3.7 C
28.12.2002 01:00 3.6 C 100 % 999.3 hPa 0.0 l/m 5.4 km/h (1 Bft) O-SO 3.6 C 2.4 C
28.12.2002 02:00 3.1 C 100 % 999.1 hPa 0.0 l/m 1.9 km/h (1 Bft) O-SO 3.1 C 2.8 C
28.12.2002 03:00 3.1 C 100 % 999.5 hPa 0.0 l/m 2.0 km/h (1 Bft) O-SO 3.1 C 2.8 C
28.12.2002 04:00 2.8 C 100 % 999.4 hPa 0.0 l/m 2.8 km/h (1 Bft) O-SO 2.8 C 2.4 C
28.12.2002 05:00 3.1 C 100 % 999.5 hPa 0.0 l/m 0.8 km/h (0 Bft) O-SO 3.1 C 2.9 C
28.12.2002 06:00 3.2 C 100 % 999.6 hPa 0.0 l/m 2.8 km/h (1 Bft) O-SO 3.2 C 2.6 C
28.12.2002 07:00 3.5 C 100 % 1000.8 hPa 0.0 l/m 8.8 km/h (2 Bft) O-SO 3.5 C 1.2 C
28.12.2002 08:00 4.6 C 100 % 1001.6 hPa 0.0 l/m 2.2 km/h (1 Bft) SO 4.6 C 4.1 C
28.12.2002 09:00 4.9 C 100 % 1002.6 hPa 0.0 l/m 1.9 km/h (1 Bft) SO 4.9 C 4.5 C
28.12.2002 10:00 5.7 C 99 % 1003.2 hPa 0.0 l/m 8.2 km/h (2 Bft) SO 5.6 C 4.1 C
28.12.2002 11:00 6.5 C 91 % 1003.6 hPa 0.0 l/m 7.7 km/h (2 Bft) SO 5.2 C 5.2 C
28.12.2002 12:00 6.8 C 90 % 1003.6 hPa 0.0 l/m 1.6 km/h (1 Bft) SO 5.3 C 6.6 C
28.12.2002 13:00 6.8 C 96 % 1003.6 hPa 0.3 l/m 0.2 km/h (0 Bft) SO 6.2 C 6.8 C
28.12.2002 14:00 6.8 C 99 % 1004.5 hPa 0.3 l/m 0.5 km/h (0 Bft) S 6.6 C 6.8 C
28.12.2002 15:00 7.2 C 99 % 1005.4 hPa 0.0 l/m 0.5 km/h (0 Bft) O 6.9 C 7.2 C
28.12.2002 16:00 7.2 C 97 % 1005.7 hPa 0.0 l/m 0.6 km/h (0 Bft) S-SW 6.7 C 7.1 C
28.12.2002 17:00 7.1 C 96 % 1006.5 hPa 0.0 l/m 0.6 km/h (0 Bft) S-SO 6.6 C 7.1 C
28.12.2002 18:00 7.1 C 95 % 1007.1 hPa 0.0 l/m 1.9 km/h (1 Bft) SO 6.3 C 6.9 C
28.12.2002 19:00 6.9 C 94 % 1007.8 hPa 0.0 l/m 4.2 km/h (1 Bft) S 6.0 C 6.3 C
28.12.2002 20:00 6.6 C 95 % 1008.4 hPa 0.6 l/m 3.1 km/h (1 Bft) W-NW 5.9 C 6.1 C
28.12.2002 21:00 7.2 C 96 % 1009.1 hPa 0.6 l/m 14.6 km/h (3 Bft) NW 6.5 C 4.9 C
28.12.2002 22:00 7.3 C 95 % 1010.1 hPa 0.0 l/m 27.5 km/h (4 Bft) W-NW 6.5 C 3.3 C
28.12.2002 23:00 7.3 C 91 % 1011.0 hPa 0.0 l/m 26.1 km/h (4 Bft) W-NW 5.9 C 3.5 C
29.12.2002 00:00 7.3 C 88 % 1011.9 hPa 0.0 l/m 23.9 km/h (4 Bft) W-NW 5.4 C 3.6 C
29.12.2002 01:00 6.6 C 88 % 1012.8 hPa 0.0 l/m 19.0 km/h (3 Bft) W-NW 4.8 C 3.5 C
29.12.2002 02:00 6.3 C 92 % 1013.0 hPa 0.9 l/m 17.1 km/h (3 Bft) NW 5.1 C 3.2 C
29.12.2002 03:00 6.3 C 90 % 1014.0 hPa 0.0 l/m 30.3 km/h (5 Bft) W-NW 4.8 C 1.8 C
29.12.2002 04:00 5.9 C 89 % 1014.0 hPa 0.0 l/m 23.8 km/h (4 Bft) W-NW 4.2 C 2.0 C
29.12.2002 05:00 5.7 C 89 % 1014.0 hPa 0.0 l/m 4.8 km/h (1 Bft) W 4.0 C 4.9 C
29.12.2002 06:00 4.9 C 90 % 1015.0 hPa 0.0 l/m 9.7 km/h (2 Bft) W 3.3 C 2.9 C
29.12.2002 07:00 3.6 C 91 % 1015.1 hPa 0.0 l/m 0.3 km/h (0 Bft) S-SO 2.3 C 3.6 C
29.12.2002 08:00 3.3 C 94 % 1015.2 hPa 0.0 l/m 7.2 km/h (2 Bft) O-SO 2.4 C 1.4 C
29.12.2002 09:00 4.7 C 85 % 1015.1 hPa 0.0 l/m 9.7 km/h (2 Bft) SO 2.4 C 2.4 C
29.12.2002 10:00 6.2 C 78 % 1015.1 hPa 0.0 l/m 4.9 km/h (1 Bft) O-SO 2.5 C 5.3 C
29.12.2002 11:00 7.3 C 70 % 1014.5 hPa 0.3 l/m 2.8 km/h (1 Bft) W-NW 2.2 C 6.9 C
29.12.2002 12:00 7.8 C 64 % 1013.6 hPa 0.0 l/m 12.1 km/h (2 Bft) SW 1.5 C 5.8 C
29.12.2002 13:00 6.5 C 74 % 1013.0 hPa 0.6 l/m 19.2 km/h (3 Bft) W 2.2 C 3.4 C
29.12.2002 14:00 5.7 C 87 % 1012.3 hPa 1.5 l/m 12.6 km/h (3 Bft) S-SW 3.7 C 3.3 C
29.12.2002 15:00 5.4 C 88 % 1011.9 hPa 0.3 l/m 8.8 km/h (2 Bft) S 3.6 C 3.7 C
29.12.2002 16:00 5.7 C 91 % 1011.9 hPa 0.3 l/m 4.0 km/h (1 Bft) S 4.3 C 5.0 C
29.12.2002 17:00 6.1 C 95 % 1011.9 hPa 0.3 l/m 0.3 km/h (0 Bft) O-NO 5.3 C 6.1 C
29.12.2002 18:00 6.1 C 97 % 1011.9 hPa 0.0 l/m 0.6 km/h (0 Bft) N-NO 5.6 C 6.0 C
29.12.2002 19:00 6.2 C 97 % 1011.9 hPa 0.3 l/m 0.1 km/h (0 Bft) N 5.8 C 6.2 C
29.12.2002 20:00 8.1 C 92 % 1011.9 hPa 0.0 l/m 17.1 km/h (3 Bft) W 6.8 C 5.7 C
29.12.2002 21:00 9.5 C 81 % 1011.9 hPa 0.0 l/m 19.5 km/h (3 Bft) W-NW 6.3 C 6.9 C
29.12.2002 22:00 10.3 C 75 % 1011.4 hPa 0.0 l/m 29.4 km/h (5 Bft) W-NW 6.2 C 10.2 C
29.12.2002 23:00 10.6 C 73 % 1010.9 hPa 0.0 l/m 21.4 km/h (4 Bft) W 6.1 C 10.6 C
Min-Datum _ 28.12.02 29.12.02 28.12.02 - 23.12.02 - 29.12.02 28.12.02
_ Min-Zeit 02:50 12:24 01:17 - 05:42 - 12:24 07:44
Minimum _ 2.6 C 62 % 998.5 hPa - 0.0 km/h (0 Bft) - 1.1 C -0.5 C
Max-Datum _ 23.12.02 26.12.02 25.12.02 26.12.02 23.12.02 - 23.12.02 23.12.02
_ Max-Zeit 13:09 23:37 04:05 11:00 00:15 - 00:15 13:09
Maximum _ 12.1 C 100 % 1021.2 hPa 1.5 l/m 46.8 km/h
W-NW (6 Bft)
- 9.7 C 12.1 C
Durchschnitt _ 6.9 C 93 % 1012.6 hPa #10.8 l/m 4.3 km/h (1 Bft) SO 5.7 C 6.3 C

Durchschnitt Minimum Temp.6.5 C
Durchschnitt Maximum Temp.7.2 C
© Kaiko 2002